Edgemere, New York
Current Conditions -  °F | °C
As of 3:20 AM on Monday 24 Nov 2014 (Local Time) from KJFK Reporting Station
Moderate Rain Moderate Rain  
Wind Chill: 59°   Ceiling: 2500
Heat Index: 59°   Visibility: 6mi
Dew Point: 55°   Wind: 22mph
Humidity: 88%   Direction: 140°SE
Pressure: 29.82"   Gusts: 29mph
Location:  40.5963°N, 73.7684°W
Report Text: KJFK 240820Z 14019G25KT 6SM RA BR FEW009 OVC025 15/13 A2982 RMK AO2 PRESFR P0006 $
Loading
Personal Weather Stations






























Interactive Weather Map New forecast layout! Learn more

10-Day Weather Forecast

Advertisements
Track Severe Weather on mobile